Great Neck Estates, New York
Current Conditions -  °F | °C
As of 3:51 PM on Wednesday 17 Dec 2014 (Local Time) from KLGA Reporting Station
Overcast Overcast  
Wind Chill: 50°   Ceiling: 3900
Heat Index: 50°   Visibility: 10mi
Dew Point: 36°   Wind: 18mph
Humidity: 59%   Direction: 300°WNW
Pressure: 29.83"   Gusts: 25mph
Location:  40.786°N, 73.7291°W
Report Text: KLGA 172051Z 30016G22KT 10SM BKN039 OVC050 10/02 A2983 RMK AO2 SLP099 T01000022 53009
Loading
Personal Weather Stations






























Interactive Weather Map New forecast layout! Learn more

10-Day Weather Forecast

Advertisements
Track Severe Weather on mobile